createdAt,value
2023-01-18T00:01:20.063Z,94666.97
2023-01-18T00:03:48.146Z,94656.41
2023-01-18T00:06:17.655Z,94670.84
2023-01-18T00:08:45.623Z,94663.31
2023-01-18T00:11:18.377Z,94662.50
2023-01-18T00:13:47.189Z,94665.56
2023-01-18T00:16:19.158Z,94661.91
2023-01-18T00:18:56.188Z,94665.97
2023-01-18T00:21:25.240Z,94663.09
2023-01-18T00:23:54.870Z,94669.81
2023-01-18T00:26:22.713Z,94665.53
2023-01-18T00:28:51.260Z,94667.97
2023-01-18T00:31:20.962Z,94666.75
2023-01-18T00:33:50.561Z,94671.22
2023-01-18T00:36:19.015Z,94676.69
2023-01-18T00:38:53.847Z,94682.53
2023-01-18T00:41:22.733Z,94673.81
2023-01-18T00:43:52.376Z,94668.97
2023-01-18T00:46:27.445Z,94677.88
2023-01-18T00:48:55.981Z,94667.94
2023-01-18T00:51:25.274Z,94672.16
2023-01-18T00:53:52.990Z,94670.94
2023-01-18T00:56:22.145Z,94678.25
2023-01-18T00:58:50.347Z,94677.41
2023-01-18T01:01:18.319Z,94678.63
2023-01-18T01:04:04.874Z,94680.66
2023-01-18T01:06:44.840Z,94681.63
2023-01-18T01:09:23.476Z,94679.22
2023-01-18T01:12:11.847Z,94687.94
2023-01-18T01:15:02.955Z,94686.53
2023-01-18T01:17:51.932Z,94683.53
2023-01-18T01:20:38.364Z,94691.25
2023-01-18T01:23:30.084Z,94681.53
2023-01-18T01:26:07.847Z,94681.13
2023-01-18T01:28:43.530Z,94688.03
2023-01-18T01:31:15.571Z,94691.88
2023-01-18T01:33:49.063Z,94696.94
2023-01-18T01:36:21.110Z,94696.31
2023-01-18T01:38:48.824Z,94703.63
2023-01-18T01:41:27.833Z,94708.50
2023-01-18T01:43:59.269Z,94707.69
2023-01-18T01:46:46.812Z,94709.94
2023-01-18T01:49:32.792Z,94711.75
2023-01-18T01:52:16.793Z,94719.25
2023-01-18T01:55:02.419Z,94718.88
2023-01-18T01:57:44.516Z,94719.88
2023-01-18T02:00:23.046Z,94715.63
2023-01-18T02:03:01.053Z,94719.66
2023-01-18T02:05:31.568Z,94721.09
2023-01-18T02:08:03.166Z,94723.06
2023-01-18T02:10:31.227Z,94728.75
2023-01-18T02:13:00.231Z,94729.13
2023-01-18T02:15:48.857Z,94727.91
2023-01-18T02:18:45.256Z,94738.03
2023-01-18T02:21:24.018Z,94734.34
2023-01-18T02:24:27.144Z,94738.06
2023-01-18T02:27:12.267Z,94742.78
2023-01-18T02:30:01.117Z,94744.38
2023-01-18T02:33:08.551Z,94747.81
2023-01-18T02:35:50.435Z,94754.72
2023-01-18T02:38:25.016Z,94759.03
2023-01-18T02:41:50.592Z,94754.19
2023-01-18T02:44:49.248Z,94762.53
2023-01-18T02:47:17.807Z,94760.50
2023-01-18T02:49:45.531Z,94770.63
2023-01-18T02:52:42.420Z,94767.59
2023-01-18T02:55:47.098Z,94763.31
2023-01-18T02:58:42.308Z,94763.31
2023-01-18T03:01:43.658Z,94765.28
2023-01-18T03:04:27.899Z,94770.25
2023-01-18T03:08:00.092Z,94772.19
2023-01-18T03:10:31.385Z,94776.84
2023-01-18T03:13:15.799Z,94772.09
2023-01-18T03:15:56.009Z,94772.53
2023-01-18T03:19:02.385Z,94772.31
2023-01-18T03:21:42.681Z,94775.56
2023-01-18T03:24:12.198Z,94774.13
2023-01-18T03:26:47.192Z,94770.66
2023-01-18T03:29:36.807Z,94773.34
2023-01-18T03:32:37.407Z,94772.13
2023-01-18T03:35:17.372Z,94778.81
2023-01-18T03:37:48.693Z,94781.44
2023-01-18T03:40:27.338Z,94780.00
2023-01-18T03:43:16.296Z,94781.06
2023-01-18T03:45:48.337Z,94790.31
2023-01-18T03:48:17.147Z,94790.91
2023-01-18T03:51:02.763Z,94790.31
2023-01-18T03:54:11.267Z,94803.13
2023-01-18T03:56:59.036Z,94802.31
2023-01-18T03:59:32.994Z,94802.13
2023-01-18T04:02:02.554Z,94805.81
2023-01-18T04:04:30.362Z,94807.88
2023-01-18T04:06:58.321Z,94812.97
2023-01-18T04:09:27.011Z,94815.59
2023-01-18T04:11:54.729Z,94819.22
2023-01-18T04:14:22.576Z,94820.59
2023-01-18T04:16:50.540Z,94820.34
2023-01-18T04:19:18.375Z,94825.00
2023-01-18T04:21:46.094Z,94825.88
2023-01-18T04:24:13.943Z,94838.88
2023-01-18T04:26:41.664Z,94836.78
2023-01-18T04:29:09.980Z,94836.50
2023-01-18T04:31:37.974Z,94844.66
2023-01-18T04:34:05.665Z,94848.50
2023-01-18T04:36:33.389Z,94849.13
2023-01-18T04:39:01.115Z,94847.78
2023-01-18T04:41:29.083Z,94858.22
2023-01-18T04:43:56.928Z,94858.22
2023-01-18T04:46:24.911Z,94860.56
2023-01-18T04:48:53.100Z,94865.06
2023-01-18T04:51:23.922Z,94865.16
2023-01-18T04:53:52.142Z,94871.69
2023-01-18T04:56:20.945Z,94874.97
2023-01-18T04:58:48.652Z,94876.34
2023-01-18T05:01:17.146Z,94879.59
2023-01-18T05:03:45.176Z,94887.56
2023-01-18T05:06:15.543Z,94894.28
2023-01-18T05:08:43.626Z,94904.66
2023-01-18T05:11:17.835Z,94895.09
2023-01-18T05:13:46.623Z,94914.16
2023-01-18T05:16:19.668Z,94920.28
2023-01-18T05:18:47.596Z,94925.75
2023-01-18T05:21:15.915Z,94934.28
2023-01-18T05:23:43.879Z,94932.56
2023-01-18T05:26:20.888Z,94937.44
2023-01-18T05:28:50.372Z,94949.41
2023-01-18T05:31:21.019Z,94946.38
2023-01-18T05:33:49.284Z,94964.19
2023-01-18T05:36:17.245Z,94960.53
2023-01-18T05:38:46.167Z,94966.56
2023-01-18T05:41:13.892Z,94977.16
2023-01-18T05:43:42.223Z,94980.06
2023-01-18T05:46:09.981Z,94972.53
2023-01-18T05:48:37.776Z,94994.16
2023-01-18T05:51:11.156Z,94991.31
2023-01-18T05:53:40.568Z,94991.97
2023-01-18T05:56:09.702Z,95006.72
2023-01-18T05:58:38.425Z,95006.00
2023-01-18T06:01:07.786Z,95007.09
2023-01-18T06:03:36.470Z,95010.69
2023-01-18T06:06:04.319Z,95025.03
2023-01-18T06:08:32.880Z,95029.34
2023-01-18T06:11:01.557Z,95036.50
2023-01-18T06:13:32.168Z,95039.16
2023-01-18T06:16:01.199Z,95047.25
2023-01-18T06:18:32.914Z,95052.63
2023-01-18T06:21:04.248Z,95060.31
2023-01-18T06:23:32.309Z,95063.78
2023-01-18T06:26:00.020Z,95067.09
2023-01-18T06:28:30.436Z,95075.34
2023-01-18T06:30:58.718Z,95073.38
2023-01-18T06:33:26.444Z,95083.91
2023-01-18T06:35:54.262Z,95082.25
2023-01-18T06:38:22.000Z,95078.84
2023-01-18T06:40:49.723Z,95086.06
2023-01-18T06:43:17.559Z,95092.09
2023-01-18T06:45:56.857Z,95099.59
2023-01-18T06:48:26.454Z,95098.00
2023-01-18T06:50:57.421Z,95102.22
2023-01-18T06:53:25.486Z,95114.22
2023-01-18T06:55:59.088Z,95115.38
2023-01-18T06:58:28.244Z,95125.69
2023-01-18T07:00:58.097Z,95129.50
2023-01-18T07:03:27.683Z,95128.06
2023-01-18T07:06:00.408Z,95136.81
2023-01-18T07:08:32.842Z,95135.47
2023-01-18T07:11:09.662Z,95146.47
2023-01-18T07:13:41.103Z,95144.56
2023-01-18T07:16:17.438Z,95155.00
2023-01-18T07:18:48.187Z,95160.47
2023-01-18T07:21:18.070Z,95166.84
2023-01-18T07:23:46.356Z,95167.25
2023-01-18T07:26:17.150Z,95176.06
2023-01-18T07:28:46.414Z,95182.16
2023-01-18T07:31:15.078Z,95187.44
2023-01-18T07:33:43.159Z,95202.38
2023-01-18T07:36:11.723Z,95194.66
2023-01-18T07:38:39.687Z,95205.81
2023-01-18T07:41:14.485Z,95205.69
2023-01-18T07:43:44.614Z,95210.59
2023-01-18T07:46:20.787Z,95214.03
2023-01-18T07:48:49.051Z,95217.84
2023-01-18T07:51:16.909Z,95222.75
2023-01-18T07:53:45.598Z,95222.56
2023-01-18T07:56:16.904Z,95222.63
2023-01-18T07:58:45.583Z,95224.28
2023-01-18T08:01:18.067Z,95233.22
2023-01-18T08:03:50.512Z,95241.13
2023-01-18T08:06:26.058Z,95237.16
2023-01-18T08:08:57.176Z,95245.19
2023-01-18T08:11:25.433Z,95254.69
2023-01-18T08:13:53.175Z,95259.63
2023-01-18T08:16:21.126Z,95258.66
2023-01-18T08:18:51.970Z,95267.34
2023-01-18T08:21:19.693Z,95266.56
2023-01-18T08:23:47.532Z,95270.75
2023-01-18T08:26:15.265Z,95281.22
2023-01-18T08:28:44.679Z,95279.75
2023-01-18T08:31:17.282Z,95282.75
2023-01-18T08:33:48.686Z,95297.81
2023-01-18T08:36:23.301Z,95297.13
2023-01-18T08:38:57.208Z,95311.94
2023-01-18T08:41:30.625Z,95313.03
2023-01-18T08:43:59.545Z,95320.03
2023-01-18T08:46:27.667Z,95337.06
2023-01-18T08:48:59.094Z,95343.19
2023-01-18T08:51:26.937Z,95352.19
2023-01-18T08:53:57.294Z,95357.94
2023-01-18T08:56:26.086Z,95356.19
2023-01-18T08:58:53.989Z,95355.38
2023-01-18T09:01:23.709Z,95358.38
2023-01-18T09:03:55.844Z,95357.72
2023-01-18T09:06:24.310Z,95364.34
2023-01-18T09:08:52.136Z,95365.16
2023-01-18T09:11:19.861Z,95361.50
2023-01-18T09:14:00.359Z,95378.34
2023-01-18T09:16:30.401Z,95386.03
2023-01-18T09:18:58.987Z,95384.75
2023-01-18T09:21:28.691Z,95394.28
2023-01-18T09:23:57.203Z,95405.28
2023-01-18T09:26:25.412Z,95413.56
2023-01-18T09:28:54.073Z,95412.88
2023-01-18T09:31:26.011Z,95423.75
2023-01-18T09:34:01.001Z,95430.53
2023-01-18T09:36:41.253Z,95440.22
2023-01-18T09:39:09.199Z,95437.84
2023-01-18T09:41:44.377Z,95440.28
2023-01-18T09:44:33.206Z,95448.16
2023-01-18T09:47:26.729Z,95457.66
2023-01-18T09:50:22.902Z,95460.13
2023-01-18T09:53:24.210Z,95453.03
2023-01-18T09:56:12.693Z,95457.66
2023-01-18T09:59:20.857Z,95470.81
2023-01-18T10:01:50.236Z,95475.25
2023-01-18T10:04:29.741Z,95472.75
2023-01-18T10:07:06.704Z,95483.75
2023-01-18T10:09:44.634Z,95485.78
2023-01-18T10:12:42.246Z,95486.41
2023-01-18T10:15:31.919Z,95485.91
2023-01-18T10:18:01.084Z,95494.47
2023-01-18T10:20:49.806Z,95490.09
2023-01-18T10:23:44.307Z,95491.22
2023-01-18T10:26:35.284Z,95493.03
2023-01-18T10:29:12.985Z,95499.69
2023-01-18T10:31:49.627Z,95505.50
2023-01-18T10:34:22.100Z,95516.75
2023-01-18T10:36:54.273Z,95513.59
2023-01-18T10:39:38.178Z,95520.09
2023-01-18T10:42:23.555Z,95516.69
2023-01-18T10:44:52.464Z,95513.06
2023-01-18T10:47:21.867Z,95518.84
2023-01-18T10:49:51.150Z,95515.31
2023-01-18T10:52:27.325Z,95510.56
2023-01-18T10:55:07.636Z,95513.88
2023-01-18T10:57:47.199Z,95517.16
2023-01-18T11:00:35.682Z,95521.44
2023-01-18T11:03:05.213Z,95527.50
2023-01-18T11:05:45.546Z,95528.69
2023-01-18T11:08:31.485Z,95534.94
2023-01-18T11:11:16.025Z,95537.25
2023-01-18T11:13:49.854Z,95548.66
2023-01-18T11:16:23.170Z,95543.94
2023-01-18T11:19:04.881Z,95549.81
2023-01-18T11:21:46.281Z,95549.34
2023-01-18T11:24:24.778Z,95553.91
2023-01-18T11:27:03.179Z,95557.88
2023-01-18T11:29:40.273Z,95564.59
2023-01-18T11:32:27.906Z,95561.56
2023-01-18T11:35:00.063Z,95566.28
2023-01-18T11:37:37.396Z,95576.31
2023-01-18T11:40:20.636Z,95569.22
2023-01-18T11:42:51.562Z,95569.09
2023-01-18T11:45:51.371Z,95576.50
2023-01-18T11:48:41.484Z,95587.91
2023-01-18T11:51:31.774Z,95587.91
2023-01-18T11:54:46.684Z,95592.44
2023-01-18T11:57:14.487Z,95592.69
2023-01-18T11:59:47.022Z,95591.19
2023-01-18T12:02:57.017Z,95593.16
2023-01-18T12:06:22.663Z,95595.72
2023-01-18T12:09:47.863Z,95601.09
2023-01-18T12:13:00.955Z,95604.72
2023-01-18T12:16:13.207Z,95605.47
2023-01-18T12:19:17.874Z,95606.31
2023-01-18T12:22:25.440Z,95620.28
2023-01-18T12:25:11.758Z,95622.72
2023-01-18T12:28:09.137Z,95622.47
2023-01-18T12:30:57.739Z,95624.38
2023-01-18T12:33:43.360Z,95629.09
2023-01-18T12:36:44.534Z,95635.81
2023-01-18T12:39:41.653Z,95639.72
2023-01-18T12:42:24.256Z,95640.41
2023-01-18T12:45:23.056Z,95634.16
2023-01-18T12:48:25.138Z,95640.56
2023-01-18T12:50:56.315Z,95645.28
2023-01-18T12:54:08.547Z,95640.56
2023-01-18T12:56:42.998Z,95645.25
2023-01-18T12:59:30.577Z,95661.66
2023-01-18T13:02:22.341Z,95664.59
2023-01-18T13:05:04.019Z,95665.38
2023-01-18T13:07:39.285Z,95664.72
2023-01-18T13:10:34.361Z,95669.63
2023-01-18T13:13:05.949Z,95677.56
2023-01-18T13:15:59.873Z,95671.66
2023-01-18T13:18:42.526Z,95674.13
2023-01-18T13:21:59.106Z,95680.03
2023-01-18T13:24:33.536Z,95688.31
2023-01-18T13:27:14.342Z,95693.03
2023-01-18T13:29:43.995Z,95691.50
2023-01-18T13:32:43.628Z,95701.84
2023-01-18T13:35:36.188Z,95701.69
2023-01-18T13:38:13.152Z,95702.28
2023-01-18T13:41:04.516Z,95721.69
2023-01-18T13:43:37.996Z,95727.50
2023-01-18T13:46:08.748Z,95734.28
2023-01-18T13:48:41.891Z,95740.91
2023-01-18T13:51:09.568Z,95741.22
2023-01-18T13:53:57.684Z,95743.94
2023-01-18T13:56:27.589Z,95750.03
2023-01-18T13:59:12.220Z,95752.28
2023-01-18T14:01:43.981Z,95758.34
2023-01-18T14:04:23.622Z,95762.97
2023-01-18T14:06:52.906Z,95764.13
2023-01-18T14:09:45.100Z,95779.94
2023-01-18T14:12:14.746Z,95785.88
2023-01-18T14:15:02.509Z,95785.56
2023-01-18T14:17:34.066Z,95789.97
2023-01-18T14:20:25.431Z,95786.38
2023-01-18T14:23:25.220Z,95791.44
2023-01-18T14:26:03.618Z,95797.84
2023-01-18T14:28:56.755Z,95796.75
2023-01-18T14:31:33.324Z,95802.47
2023-01-18T14:34:23.767Z,95811.41
2023-01-18T14:36:52.444Z,95816.19
2023-01-18T14:39:21.498Z,95818.28
2023-01-18T14:41:59.533Z,95827.84
2023-01-18T14:44:58.273Z,95837.06
2023-01-18T14:47:31.230Z,95829.34
2023-01-18T14:50:01.580Z,95839.75
2023-01-18T14:52:34.596Z,95838.25
2023-01-18T14:55:02.910Z,95844.03
2023-01-18T14:57:30.630Z,95853.91
2023-01-18T15:00:16.728Z,95851.44
2023-01-18T15:02:46.185Z,95851.69
2023-01-18T15:05:19.724Z,95861.78
2023-01-18T15:07:55.747Z,95859.97
2023-01-18T15:10:24.756Z,95868.72
2023-01-18T15:12:59.331Z,95865.63
2023-01-18T15:15:42.175Z,95871.88
2023-01-18T15:18:19.246Z,95882.56
2023-01-18T15:21:12.777Z,95887.16
2023-01-18T15:23:41.232Z,95896.88
2023-01-18T15:26:09.050Z,95901.78
2023-01-18T15:28:36.894Z,95901.47
2023-01-18T15:31:16.406Z,95898.84
2023-01-18T15:33:44.886Z,95904.44
2023-01-18T15:36:14.101Z,95907.56
2023-01-18T15:38:41.946Z,95916.78
2023-01-18T15:41:14.813Z,95925.53
2023-01-18T15:43:46.887Z,95929.47
2023-01-18T15:46:18.309Z,95940.84
2023-01-18T15:48:54.673Z,95932.78
2023-01-18T15:51:42.678Z,95935.41
2023-01-18T15:54:22.526Z,95944.78
2023-01-18T15:56:50.967Z,95945.16
2023-01-18T15:59:22.795Z,95959.31
2023-01-18T16:02:18.989Z,95952.75
2023-01-18T16:04:47.249Z,95960.97
2023-01-18T16:07:30.091Z,95960.66
2023-01-18T16:10:30.362Z,95961.66
2023-01-18T16:13:32.148Z,95964.13
2023-01-18T16:16:19.617Z,95963.31
2023-01-18T16:18:51.827Z,95965.78
2023-01-18T16:21:57.491Z,95978.63
2023-01-18T16:24:46.686Z,95978.97
2023-01-18T16:27:18.962Z,95986.06
2023-01-18T16:29:56.272Z,95987.03
2023-01-18T16:32:29.827Z,95996.78
2023-01-18T16:35:09.999Z,95998.75
2023-01-18T16:37:41.906Z,95996.94
2023-01-18T16:40:16.586Z,96000.88
2023-01-18T16:43:19.682Z,96003.88
2023-01-18T16:45:54.900Z,96015.06
2023-01-18T16:48:26.420Z,96015.38
2023-01-18T16:50:56.181Z,96009.63
2023-01-18T16:53:24.026Z,96021.81
2023-01-18T16:55:51.760Z,96022.81
2023-01-18T16:58:21.265Z,96026.56
2023-01-18T17:01:08.185Z,96027.72
2023-01-18T17:03:36.199Z,96038.72
2023-01-18T17:06:04.467Z,96045.78
2023-01-18T17:08:32.793Z,96039.72
2023-01-18T17:11:00.639Z,96044.78
2023-01-18T17:13:28.479Z,96043.16
2023-01-18T17:15:56.203Z,96048.22
2023-01-18T17:18:27.048Z,96049.38
2023-01-18T17:20:55.604Z,96054.81
2023-01-18T17:23:25.647Z,96066.19
2023-01-18T17:25:53.696Z,96065.19
2023-01-18T17:28:21.532Z,96070.63
2023-01-18T17:30:50.262Z,96069.78
2023-01-18T17:33:24.561Z,96082.59
2023-01-18T17:35:54.418Z,96080.16
2023-01-18T17:38:24.930Z,96081.28
2023-01-18T17:40:53.596Z,96081.63
2023-01-18T17:43:33.313Z,96088.84
2023-01-18T17:46:06.601Z,96092.78
2023-01-18T17:48:34.510Z,96100.84
2023-01-18T17:51:06.787Z,96094.38
2023-01-18T17:53:35.839Z,96102.94
2023-01-18T17:56:14.235Z,96101.91
2023-01-18T17:58:45.918Z,96101.09
2023-01-18T18:01:16.250Z,96107.19
2023-01-18T18:03:50.603Z,96116.09
2023-01-18T18:06:30.021Z,96122.97
2023-01-18T18:08:59.496Z,96124.13
2023-01-18T18:11:27.451Z,96127.59
2023-01-18T18:13:56.765Z,96132.84
2023-01-18T18:16:25.718Z,96143.38
2023-01-18T18:18:53.980Z,96144.19
2023-01-18T18:21:26.164Z,96156.09
2023-01-18T18:23:54.106Z,96156.44
2023-01-18T18:26:21.824Z,96151.84
2023-01-18T18:28:49.925Z,96161.84
2023-01-18T18:31:17.677Z,96163.66
2023-01-18T18:33:45.474Z,96163.00
2023-01-18T18:36:13.323Z,96169.25
2023-01-18T18:38:41.437Z,96175.63
2023-01-18T18:41:09.119Z,96182.56
2023-01-18T18:43:36.840Z,96183.50
2023-01-18T18:46:04.576Z,96185.13
2023-01-18T18:48:32.291Z,96197.13
2023-01-18T18:51:00.128Z,96196.59
2023-01-18T18:53:37.592Z,96203.50
2023-01-18T18:56:09.417Z,96204.13
2023-01-18T18:58:39.293Z,96205.59
2023-01-18T19:01:18.345Z,96206.75
2023-01-18T19:03:46.581Z,96214.50
2023-01-18T19:06:14.669Z,96214.34
2023-01-18T19:08:42.748Z,96226.22
2023-01-18T19:11:11.078Z,96228.84
2023-01-18T19:13:39.029Z,96236.59
2023-01-18T19:16:07.283Z,96239.25
2023-01-18T19:18:35.443Z,96242.38
2023-01-18T19:21:03.515Z,96236.13
2023-01-18T19:23:31.486Z,96246.66
2023-01-18T19:25:59.443Z,96247.34
2023-01-18T19:28:27.163Z,96253.41
2023-01-18T19:31:02.840Z,96250.13
2023-01-18T19:33:30.655Z,96255.69
2023-01-18T19:35:58.630Z,96263.75
2023-01-18T19:38:26.333Z,96268.63
2023-01-18T19:40:54.181Z,96263.50
2023-01-18T19:43:21.899Z,96270.44
2023-01-18T19:45:49.743Z,96270.53
2023-01-18T19:48:17.582Z,96268.19
2023-01-18T19:50:45.548Z,96273.28
2023-01-18T19:53:13.275Z,96269.72
2023-01-18T19:55:41.111Z,96279.09
2023-01-18T19:58:09.198Z,96275.47
2023-01-18T20:00:36.947Z,96283.34
2023-01-18T20:03:05.139Z,96278.56
2023-01-18T20:05:32.979Z,96287.44
2023-01-18T20:08:00.682Z,96291.03
2023-01-18T20:10:28.418Z,96291.34
2023-01-18T20:12:56.280Z,96298.41
2023-01-18T20:15:23.967Z,96298.94
2023-01-18T20:17:51.695Z,96296.31
2023-01-18T20:20:31.300Z,96297.44
2023-01-18T20:23:04.134Z,96312.09
2023-01-18T20:25:33.126Z,96314.06
2023-01-18T20:28:01.067Z,96317.50
2023-01-18T20:30:28.907Z,96314.19
2023-01-18T20:32:56.663Z,96315.19
2023-01-18T20:35:24.363Z,96316.00
2023-01-18T20:37:54.485Z,96322.09
2023-01-18T20:40:22.675Z,96326.81
2023-01-18T20:42:50.516Z,96320.88
2023-01-18T20:45:18.249Z,96327.94
2023-01-18T20:47:45.981Z,96330.44
2023-01-18T20:50:13.929Z,96331.72
2023-01-18T20:52:42.012Z,96330.19
2023-01-18T20:55:13.228Z,96339.59
2023-01-18T20:57:42.254Z,96344.19
2023-01-18T21:00:12.524Z,96354.41
2023-01-18T21:02:43.808Z,96356.06
2023-01-18T21:05:11.901Z,96367.69
2023-01-18T21:07:41.590Z,96365.25
2023-01-18T21:10:11.307Z,96362.63
2023-01-18T21:12:39.042Z,96369.66
2023-01-18T21:15:09.069Z,96380.34
2023-01-18T21:17:36.999Z,96374.16
2023-01-18T21:20:05.196Z,96380.41
2023-01-18T21:22:33.518Z,96381.22
2023-01-18T21:25:01.245Z,96382.50
2023-01-18T21:27:29.089Z,96379.00
2023-01-18T21:29:56.926Z,96382.31
2023-01-18T21:32:24.887Z,96378.19
2023-01-18T21:34:52.616Z,96379.31
2023-01-18T21:37:20.334Z,96374.34
2023-01-18T21:39:48.064Z,96375.03
2023-01-18T21:42:34.021Z,96378.78
2023-01-18T21:45:20.816Z,96388.47
2023-01-18T21:47:48.538Z,96394.03
2023-01-18T21:50:35.584Z,96391.53
2023-01-18T21:53:22.153Z,96398.31
2023-01-18T21:55:52.160Z,96399.28
2023-01-18T21:58:38.227Z,96406.75
2023-01-18T22:01:18.542Z,96410.28
2023-01-18T22:04:05.243Z,96414.56
2023-01-18T22:06:32.959Z,96418.75
2023-01-18T22:09:00.806Z,96422.34
2023-01-18T22:11:28.555Z,96416.94
2023-01-18T22:13:56.248Z,96417.50
2023-01-18T22:16:30.327Z,96421.47
2023-01-18T22:19:00.334Z,96420.78
2023-01-18T22:21:29.148Z,96427.69
2023-01-18T22:23:56.867Z,96430.63
2023-01-18T22:26:28.308Z,96436.84
2023-01-18T22:28:56.382Z,96438.53
2023-01-18T22:31:24.461Z,96442.66
2023-01-18T22:33:52.563Z,96442.94
2023-01-18T22:36:20.263Z,96442.09
2023-01-18T22:38:47.991Z,96448.50
2023-01-18T22:41:19.440Z,96455.25
2023-01-18T22:43:47.270Z,96462.72
2023-01-18T22:46:18.859Z,96464.53
2023-01-18T22:48:48.001Z,96469.94
2023-01-18T22:51:23.406Z,96469.25
2023-01-18T22:53:51.961Z,96463.97
2023-01-18T22:56:22.221Z,96463.28
2023-01-18T22:58:51.005Z,96465.25
2023-01-18T23:01:25.378Z,96472.16
2023-01-18T23:03:57.143Z,96466.91
2023-01-18T23:06:25.212Z,96478.25
2023-01-18T23:08:54.281Z,96476.75
2023-01-18T23:11:26.064Z,96475.06
2023-01-18T23:14:16.233Z,96478.38
2023-01-18T23:17:03.047Z,96473.25
2023-01-18T23:19:31.248Z,96480.31
2023-01-18T23:21:59.312Z,96476.88
2023-01-18T23:24:27.269Z,96486.84
2023-01-18T23:26:55.244Z,96483.09
2023-01-18T23:29:23.078Z,96485.72
2023-01-18T23:31:50.917Z,96492.66
2023-01-18T23:34:19.024Z,96496.78
2023-01-18T23:36:46.731Z,96497.78
2023-01-18T23:39:33.048Z,96498.75
2023-01-18T23:42:19.251Z,96498.06
2023-01-18T23:45:05.572Z,96501.94
2023-01-18T23:47:52.130Z,96502.34
2023-01-18T23:50:38.215Z,96506.25
2023-01-18T23:53:24.668Z,96508.56
2023-01-18T23:55:53.012Z,96502.75
2023-01-18T23:58:20.716Z,96513.69
